Time;durP1;ratioP1;P1;durP2;ratioP2;P2;SDS_P1;SDS_P2;PMS_P1;PMS_P2;Temp;Humidity;BMP_temperature;BMP_pressure;BME280_temperature;BME280_humidity;BME280_pressure;Samples;Min_cycle;Max_cycle;Signal;HPM_P1;HPM_P2
2021/09/13 00:01:01;;;;;;;13.85;12.75;;;14.40;87.50;;;;;;4933079;29;20193;-71
2021/09/13 00:03:34;;;;;;;13.52;12.43;;;14.40;87.40;;;;;;4950364;29;20100;-70
2021/09/13 00:06:06;;;;;;;13.38;12.27;;;14.50;87.70;;;;;;4930898;29;20187;-71
2021/09/13 00:08:38;;;;;;;14.18;13.00;;;14.50;86.80;;;;;;4920778;30;20611;-71
2021/09/13 00:11:10;;;;;;;14.80;13.48;;;14.50;86.40;;;;;;4918408;30;20158;-71
2021/09/13 00:13:42;;;;;;;14.75;13.30;;;14.50;87.30;;;;;;4934412;29;20059;-72
2021/09/13 00:16:15;;;;;;;14.52;13.32;;;14.40;87.00;;;;;;4934491;29;20160;-70
2021/09/13 00:18:47;;;;;;;14.20;12.90;;;14.40;86.60;;;;;;4936320;29;20075;-71
2021/09/13 00:21:20;;;;;;;14.13;12.98;;;14.30;86.90;;;;;;4932628;29;20055;-71
2021/09/13 00:23:52;;;;;;;13.52;12.43;;;14.30;86.70;;;;;;4932791;29;20060;-70
2021/09/13 00:26:25;;;;;;;14.63;13.25;;;14.20;86.70;;;;;;4936632;29;20056;-71
2021/09/13 00:29:00;;;;;;;14.52;13.32;;;14.10;88.00;;;;;;4935751;29;20189;-71
2021/09/13 00:31:33;;;;;;;14.65;13.40;;;14.10;87.10;;;;;;4934429;29;20051;-70
2021/09/13 00:34:06;;;;;;;14.00;12.80;;;14.20;86.90;;;;;;4933420;29;20586;-71
2021/09/13 00:36:40;;;;;;;15.35;13.82;;;14.20;86.90;;;;;;4930898;29;20047;-71
2021/09/13 00:39:12;;;;;;;14.15;13.00;;;14.20;86.50;;;;;;4942430;29;20058;-71
2021/09/13 00:41:44;;;;;;;14.13;12.68;;;14.30;86.30;;;;;;4933294;29;20400;-71
2021/09/13 00:44:17;;;;;;;14.10;13.00;;;14.20;86.00;;;;;;4927609;29;20142;-71
2021/09/13 00:46:49;;;;;;;13.82;12.73;;;14.30;86.20;;;;;;4933428;29;20067;-71
2021/09/13 00:49:22;;;;;;;14.25;13.15;;;14.20;85.80;;;;;;4932981;29;20047;-71
2021/09/13 00:51:55;;;;;;;14.40;13.00;;;14.20;86.10;;;;;;4934653;29;20682;-71
2021/09/13 00:54:27;;;;;;;14.00;12.57;;;14.30;86.60;;;;;;4917626;30;20055;-71
2021/09/13 00:57:01;;;;;;;14.88;13.68;;;14.20;85.80;;;;;;4932420;29;20704;-71
2021/09/13 00:59:33;;;;;;;13.85;12.73;;;14.20;86.30;;;;;;4949295;29;20669;-71
2021/09/13 01:02:05;;;;;;;14.40;13.13;;;14.20;86.30;;;;;;4934510;29;20974;-71
2021/09/13 01:04:37;;;;;;;14.05;12.95;;;14.10;86.80;;;;;;4920409;29;20473;-70
2021/09/13 01:07:09;;;;;;;14.35;13.05;;;14.10;87.30;;;;;;4936184;29;20109;-70
2021/09/13 01:09:42;;;;;;;15.18;13.73;;;14.10;88.20;;;;;;4935277;29;20380;-71
2021/09/13 01:12:14;;;;;;;14.15;13.05;;;14.00;87.60;;;;;;4940453;29;20040;-71
2021/09/13 01:14:46;;;;;;;14.63;13.40;;;14.00;87.60;;;;;;4941796;29;20109;-71
2021/09/13 01:17:18;;;;;;;14.93;13.60;;;14.00;87.60;;;;;;4933839;29;20105;-72
2021/09/13 01:19:50;;;;;;;14.02;12.93;;;14.00;87.50;;;;;;4918980;30;20051;-71
2021/09/13 01:22:25;;;;;;;14.38;13.18;;;14.10;87.00;;;;;;4931560;29;20055;-71
2021/09/13 01:25:03;;;;;;;14.65;13.25;;;14.10;87.30;;;;;;4948925;29;20059;-72
2021/09/13 01:27:36;;;;;;;14.15;12.85;;;14.10;88.30;;;;;;4934758;29;20043;-71
2021/09/13 01:30:10;;;;;;;13.68;12.57;;;14.10;87.70;;;;;;4932858;29;20056;-71
2021/09/13 01:32:42;;;;;;;15.15;13.95;;;14.10;87.90;;;;;;4946943;29;20058;-71
2021/09/13 01:35:14;;;;;;;15.23;14.02;;;14.10;87.90;;;;;;4911780;29;20054;-70
2021/09/13 01:37:46;;;;;;;15.85;14.50;;;14.10;88.10;;;;;;4934206;29;20050;-72
2021/09/13 01:40:19;;;;;;;16.13;14.73;;;14.10;88.30;;;;;;4925397;29;20059;-70
2021/09/13 01:42:51;;;;;;;15.90;14.57;;;14.10;88.20;;;;;;4935267;29;20051;-71
2021/09/13 01:45:26;;;;;;;15.88;14.38;;;14.10;89.10;;;;;;4920963;29;20860;-71
2021/09/13 01:47:58;;;;;;;15.20;13.98;;;14.10;88.20;;;;;;4933605;29;20053;-71
2021/09/13 01:50:30;;;;;;;15.55;14.25;;;14.10;88.00;;;;;;4924926;30;20047;-72
2021/09/13 01:53:02;;;;;;;15.00;13.90;;;14.10;87.70;;;;;;4921617;30;20059;-70
2021/09/13 01:55:34;;;;;;;16.15;14.85;;;14.10;87.30;;;;;;4921232;30;20100;-71
2021/09/13 01:58:07;;;;;;;14.88;13.68;;;14.10;87.20;;;;;;4903750;29;20052;-70
2021/09/13 02:00:39;;;;;;;15.88;14.35;;;14.20;87.20;;;;;;4946008;29;20560;-71
2021/09/13 02:03:11;;;;;;;15.75;14.35;;;14.20;87.60;;;;;;4947336;29;20591;-70
2021/09/13 02:05:51;;;;;;;14.93;13.75;;;14.20;88.60;;;;;;4933548;29;20138;-71
2021/09/13 02:08:30;;;;;;;15.63;14.27;;;14.20;87.50;;;;;;4918629;30;20048;-72
2021/09/13 02:11:05;;;;;;;16.50;14.85;;;14.20;87.10;;;;;;4931924;29;20133;-71
2021/09/13 02:13:39;;;;;;;15.65;14.30;;;14.30;87.50;;;;;;4947092;29;20101;-71
2021/09/13 02:16:12;;;;;;;15.52;14.32;;;14.30;88.00;;;;;;4934019;29;20061;-71
2021/09/13 02:18:44;;;;;;;15.55;14.30;;;14.30;87.80;;;;;;4934884;29;20521;-71
2021/09/13 02:21:18;;;;;;;15.55;14.20;;;14.20;87.70;;;;;;4930716;29;20056;-71
2021/09/13 02:23:51;;;;;;;15.75;14.23;;;14.20;88.30;;;;;;4934906;29;20055;-71
2021/09/13 02:26:23;;;;;;;15.18;13.98;;;14.20;87.90;;;;;;4930508;29;20543;-72
2021/09/13 02:28:57;;;;;;;15.43;14.15;;;14.20;87.50;;;;;;4933907;29;20469;-72
2021/09/13 02:31:29;;;;;;;15.45;14.18;;;14.20;87.50;;;;;;4924720;30;20052;-73
2021/09/13 02:34:01;;;;;;;15.05;13.75;;;14.30;87.40;;;;;;4910494;29;20930;-71
2021/09/13 02:36:36;;;;;;;15.25;13.98;;;14.30;87.50;;;;;;4944732;29;20039;-72
2021/09/13 02:39:09;;;;;;;15.55;14.27;;;14.30;88.10;;;;;;4918025;29;20059;-71
2021/09/13 02:41:47;;;;;;;15.35;14.15;;;14.30;88.30;;;;;;4931977;29;20108;-70
2021/09/13 02:44:22;;;;;;;14.75;13.30;;;14.20;87.70;;;;;;4920884;29;20090;-71
2021/09/13 02:46:55;;;;;;;15.18;13.95;;;14.20;87.70;;;;;;4923460;29;20531;-72
2021/09/13 02:49:28;;;;;;;15.20;13.90;;;14.20;88.00;;;;;;4946577;29;20047;-71
2021/09/13 02:52:01;;;;;;;14.70;13.48;;;14.20;88.00;;;;;;4933188;29;20530;-71
2021/09/13 02:54:33;;;;;;;14.68;13.57;;;14.20;88.20;;;;;;4925694;29;20146;-71
2021/09/13 02:57:05;;;;;;;14.20;12.90;;;14.20;88.40;;;;;;4928752;29;20055;-71
2021/09/13 02:59:38;;;;;;;14.48;13.30;;;14.20;88.40;;;;;;4920864;29;20052;-71
2021/09/13 03:02:10;;;;;;;14.40;13.20;;;14.20;88.70;;;;;;4933375;29;20136;-71
2021/09/13 03:04:43;;;;;;;14.35;12.98;;;14.20;88.80;;;;;;4919987;29;20058;-71
2021/09/13 03:07:17;;;;;;;14.80;13.55;;;14.20;88.90;;;;;;4931025;29;20109;-71
2021/09/13 03:09:49;;;;;;;15.55;14.23;;;14.20;89.00;;;;;;4932266;29;20051;-71
2021/09/13 03:12:22;;;;;;;15.45;14.02;;;14.20;89.20;;;;;;4939360;29;20055;-71
2021/09/13 03:14:54;;;;;;;14.80;13.50;;;14.10;88.70;;;;;;4919881;29;20048;-71
2021/09/13 03:17:26;;;;;;;14.52;13.23;;;14.10;88.70;;;;;;4923222;29;20568;-71
2021/09/13 03:19:57;;;;;;;14.40;13.20;;;14.20;88.60;;;;;;4932855;29;20137;-71
2021/09/13 03:22:30;;;;;;;15.90;14.52;;;14.20;88.50;;;;;;4932257;29;20777;-72
2021/09/13 03:25:04;;;;;;;14.90;13.60;;;14.10;88.10;;;;;;4931574;29;20534;-71
2021/09/13 03:27:36;;;;;;;14.45;13.25;;;14.10;88.60;;;;;;4937866;29;20078;-71
2021/09/13 03:30:10;;;;;;;14.27;12.95;;;14.10;88.50;;;;;;4933846;29;20583;-72
2021/09/13 03:32:46;;;;;;;14.35;13.25;;;14.20;88.70;;;;;;4946734;29;20842;-71
2021/09/13 03:35:18;;;;;;;14.77;13.57;;;14.20;88.70;;;;;;4929878;29;20074;-71
2021/09/13 03:37:50;;;;;;;15.70;14.40;;;14.20;88.70;;;;;;4933043;29;20670;-71
2021/09/13 03:40:23;;;;;;;14.70;13.43;;;14.20;88.80;;;;;;4933565;29;20055;-72
2021/09/13 03:42:55;;;;;;;15.02;13.82;;;14.20;88.30;;;;;;4924985;30;20058;-71
2021/09/13 03:45:28;;;;;;;15.40;14.20;;;14.20;88.30;;;;;;4917787;29;20052;-71
2021/09/13 03:48:20;;;;;;;14.95;13.75;;;14.10;88.30;;;;;;4918637;30;20447;-71
2021/09/13 03:50:53;;;;;;;14.82;13.73;;;14.10;88.70;;;;;;4929854;29;20112;-71
2021/09/13 03:53:25;;;;;;;15.77;14.57;;;14.10;88.50;;;;;;4940295;29;20062;-72
2021/09/13 03:55:58;;;;;;;15.30;14.07;;;14.10;88.10;;;;;;4922213;29;20076;-71
2021/09/13 03:58:30;;;;;;;15.45;14.15;;;14.10;88.00;;;;;;4933158;29;20137;-71
2021/09/13 04:01:02;;;;;;;15.20;14.00;;;14.00;87.60;;;;;;4931784;29;20051;-72
2021/09/13 04:03:44;;;;;;;14.68;13.48;;;13.90;88.50;;;;;;4930237;29;20059;-71
2021/09/13 04:12:24;;;;;;;15.10;13.90;;;13.80;88.30;;;;;;4929192;29;20043;-71
2021/09/13 04:15:20;;;;;;;14.82;13.63;;;13.80;87.70;;;;;;4933294;29;20272;-70
2021/09/13 04:18:15;;;;;;;14.93;13.73;;;13.70;87.70;;;;;;4927759;29;20059;-70
2021/09/13 04:20:46;;;;;;;14.35;13.20;;;13.80;87.50;;;;;;4929129;29;20533;-72
2021/09/13 04:23:37;;;;;;;14.27;13.18;;;13.70;88.10;;;;;;4932517;29;20055;-70
2021/09/13 04:26:12;;;;;;;14.57;13.38;;;13.70;87.60;;;;;;4932865;29;20181;-71
2021/09/13 04:29:04;;;;;;;14.50;13.40;;;13.70;87.70;;;;;;4930501;29;20252;-71
2021/09/13 04:31:55;;;;;;;14.82;13.73;;;13.70;87.50;;;;;;4930124;29;20051;-71
2021/09/13 04:34:41;;;;;;;13.75;12.65;;;13.70;87.40;;;;;;4920465;29;20132;-72
2021/09/13 04:37:36;;;;;;;13.70;12.40;;;13.60;87.30;;;;;;4929041;29;20055;-71
2021/09/13 04:40:34;;;;;;;14.23;12.90;;;13.60;87.20;;;;;;4928443;29;20511;-71
2021/09/13 04:43:12;;;;;;;13.85;12.65;;;13.60;87.30;;;;;;4932115;29;20063;-71
2021/09/13 04:45:49;;;;;;;13.35;12.25;;;13.50;87.40;;;;;;4933671;29;20058;-72
2021/09/13 04:48:40;;;;;;;13.77;12.68;;;13.50;87.10;;;;;;4933539;29;20079;-73
2021/09/13 04:51:32;;;;;;;13.35;12.25;;;13.50;87.20;;;;;;4933634;29;20134;-71
2021/09/13 04:54:19;;;;;;;13.70;12.43;;;13.50;86.90;;;;;;4929587;29;20055;-72
2021/09/13 04:56:51;;;;;;;13.65;12.55;;;13.50;87.70;;;;;;4933804;29;20079;-71
2021/09/13 04:59:23;;;;;;;14.05;12.68;;;13.40;86.90;;;;;;4927154;29;20967;-71
2021/09/13 05:01:56;;;;;;;12.63;11.60;;;13.40;86.90;;;;;;4919492;30;20063;-71
2021/09/13 05:04:30;;;;;;;13.15;11.80;;;13.40;87.80;;;;;;4932428;29;20063;-71
2021/09/13 05:07:02;;;;;;;13.55;12.35;;;13.40;87.10;;;;;;4919883;30;20047;-71
2021/09/13 05:09:34;;;;;;;11.82;10.90;;;13.40;87.60;;;;;;4921333;29;20055;-71
2021/09/13 05:12:09;;;;;;;12.57;11.57;;;13.40;87.70;;;;;;4919093;29;20047;-71
2021/09/13 05:14:42;;;;;;;13.15;11.95;;;13.40;87.30;;;;;;4919353;29;20108;-71
2021/09/13 05:17:15;;;;;;;13.25;11.95;;;13.40;87.00;;;;;;4931040;29;20071;-71
2021/09/13 05:19:47;;;;;;;13.27;11.98;;;13.30;87.00;;;;;;4931523;29;20054;-71
2021/09/13 05:22:22;;;;;;;13.98;12.75;;;13.30;86.90;;;;;;4924907;29;20590;-71
2021/09/13 05:24:54;;;;;;;13.30;12.05;;;13.20;87.30;;;;;;4934708;29;20059;-71
2021/09/13 05:27:26;;;;;;;13.65;12.25;;;13.20;87.30;;;;;;4929357;29;20105;-71
2021/09/13 05:29:58;;;;;;;13.20;12.10;;;13.20;87.40;;;;;;4931353;29;20054;-71
2021/09/13 05:32:32;;;;;;;13.05;11.95;;;13.20;87.60;;;;;;4935115;29;20040;-70
2021/09/13 05:35:06;;;;;;;14.00;12.60;;;13.30;87.60;;;;;;4933385;29;20043;-72
2021/09/13 05:37:41;;;;;;;13.45;12.27;;;13.30;87.10;;;;;;4901074;29;20341;-73
2021/09/13 05:40:13;;;;;;;13.95;12.75;;;13.40;87.20;;;;;;4946188;29;20845;-71
2021/09/13 05:42:45;;;;;;;14.20;12.88;;;13.50;87.10;;;;;;4938967;29;20058;-72
2021/09/13 05:45:20;;;;;;;13.18;12.07;;;13.50;86.90;;;;;;4929113;29;20058;-73
2021/09/13 05:47:53;;;;;;;14.20;13.10;;;13.60;87.10;;;;;;4930909;29;20048;-71
2021/09/13 05:50:25;;;;;;;13.30;12.20;;;13.60;87.00;;;;;;4934536;29;20135;-72
2021/09/13 05:52:57;;;;;;;14.63;13.32;;;13.70;87.30;;;;;;4933054;29;20087;-72
2021/09/13 05:55:32;;;;;;;13.13;12.02;;;13.70;87.50;;;;;;4910461;29;20059;-73
2021/09/13 05:58:04;;;;;;;13.82;12.73;;;13.70;87.20;;;;;;4928241;29;20058;-72
2021/09/13 06:00:37;;;;;;;13.98;12.88;;;13.80;87.30;;;;;;4931649;29;20067;-72
2021/09/13 06:03:11;;;;;;;15.05;13.77;;;13.90;87.40;;;;;;4940823;29;20047;-72
2021/09/13 06:06:10;;;;;;;14.35;13.25;;;13.80;87.90;;;;;;4933258;29;20093;-72
2021/09/13 06:08:42;;;;;;;14.93;13.82;;;13.80;87.80;;;;;;4933904;29;20052;-72
2021/09/13 06:11:15;;;;;;;15.32;13.82;;;13.90;87.60;;;;;;4934488;29;20047;-71
2021/09/13 06:13:51;;;;;;;14.43;13.30;;;14.00;87.50;;;;;;4919896;29;20792;-71
2021/09/13 06:16:23;;;;;;;14.50;13.30;;;14.10;87.40;;;;;;4946516;29;20927;-72
2021/09/13 06:18:56;;;;;;;15.05;13.77;;;14.20;87.40;;;;;;4930862;29;20071;-71
2021/09/13 06:21:29;;;;;;;15.18;13.77;;;14.30;87.10;;;;;;4931439;29;20956;-71
2021/09/13 06:24:01;;;;;;;16.02;14.52;;;14.30;87.20;;;;;;4934305;29;20070;-73
2021/09/13 06:26:33;;;;;;;15.35;14.15;;;14.40;87.00;;;;;;4932874;29;20486;-71
2021/09/13 06:29:06;;;;;;;14.40;13.20;;;14.50;87.00;;;;;;4941489;29;20047;-71
2021/09/13 06:31:38;;;;;;;15.25;13.95;;;14.70;87.20;;;;;;4919171;30;20068;-72
2021/09/13 06:34:15;;;;;;;15.40;14.20;;;14.80;87.10;;;;;;4925661;29;20059;-71
2021/09/13 06:36:49;;;;;;;14.55;13.45;;;15.00;86.80;;;;;;4925505;30;20072;-73
2021/09/13 06:39:21;;;;;;;14.88;13.68;;;15.20;86.00;;;;;;4932933;29;20052;-72
2021/09/13 06:41:53;;;;;;;14.77;13.68;;;15.30;86.00;;;;;;4932581;29;20545;-72
2021/09/13 06:44:30;;;;;;;15.30;14.00;;;15.50;85.90;;;;;;4934491;29;20465;-71
2021/09/13 06:47:04;;;;;;;15.65;14.35;;;15.60;84.90;;;;;;4924720;29;20129;-72
2021/09/13 06:49:38;;;;;;;14.75;13.65;;;15.70;84.80;;;;;;4931685;29;20089;-73
2021/09/13 06:52:10;;;;;;;15.32;14.02;;;15.80;84.20;;;;;;4929949;29;20522;-72
2021/09/13 06:54:42;;;;;;;15.85;14.55;;;15.90;84.20;;;;;;4946507;29;20138;-71
2021/09/13 06:57:14;;;;;;;16.58;15.30;;;16.10;84.40;;;;;;4930383;29;20048;-71
2021/09/13 06:59:46;;;;;;;16.33;14.95;;;16.00;84.10;;;;;;4931943;29;20077;-71
2021/09/13 07:02:18;;;;;;;15.70;14.48;;;16.00;84.70;;;;;;4930301;29;20052;-72
2021/09/13 07:04:50;;;;;;;15.50;14.30;;;16.20;84.80;;;;;;4919037;30;20198;-71
2021/09/13 07:07:22;;;;;;;15.88;14.57;;;16.30;84.10;;;;;;4931403;29;20138;-71
2021/09/13 07:09:55;;;;;;;15.80;14.60;;;16.40;84.30;;;;;;4931322;29;20058;-72
2021/09/13 07:12:28;;;;;;;15.77;14.57;;;16.50;83.10;;;;;;4932033;29;20070;-72
2021/09/13 07:15:05;;;;;;;15.13;13.93;;;16.60;83.30;;;;;;4941117;29;20048;-71
2021/09/13 07:17:37;;;;;;;15.60;14.25;;;16.70;82.60;;;;;;4931229;29;20529;-71
2021/09/13 07:20:10;;;;;;;15.35;14.15;;;16.80;82.90;;;;;;4939071;29;20062;-72
2021/09/13 07:22:43;;;;;;;15.55;14.25;;;16.80;81.90;;;;;;4934288;29;20063;-72
2021/09/13 07:25:14;;;;;;;15.52;14.35;;;16.90;82.80;;;;;;4933007;29;20130;-72
2021/09/13 07:27:46;;;;;;;16.23;14.93;;;17.00;81.20;;;;;;4931483;29;20056;-71
2021/09/13 07:30:19;;;;;;;15.50;14.40;;;17.10;82.50;;;;;;4935126;29;20055;-72
2021/09/13 07:32:52;;;;;;;15.43;14.23;;;17.30;82.20;;;;;;4931221;29;20055;-72
2021/09/13 07:35:24;;;;;;;16.05;14.85;;;17.30;80.80;;;;;;4919673;29;20188;-73
2021/09/13 07:37:56;;;;;;;16.33;14.95;;;17.50;81.20;;;;;;4944358;29;20150;-72
2021/09/13 07:40:28;;;;;;;16.55;15.35;;;17.60;80.80;;;;;;4938836;29;20067;-72
2021/09/13 07:43:00;;;;;;;16.83;15.50;;;17.70;81.20;;;;;;4932859;29;20135;-72
2021/09/13 07:45:32;;;;;;;15.82;14.63;;;17.80;81.00;;;;;;4932224;29;20067;-71
2021/09/13 07:48:04;;;;;;;16.60;15.32;;;17.90;81.80;;;;;;4931291;29;20054;-72
2021/09/13 07:50:38;;;;;;;16.27;15.07;;;18.00;80.20;;;;;;4928042;29;20565;-72
2021/09/13 07:53:10;;;;;;;17.83;16.35;;;18.20;79.80;;;;;;4934457;29;20854;-71
2021/09/13 07:55:42;;;;;;;17.30;16.10;;;18.20;79.70;;;;;;4929983;29;20075;-71
2021/09/13 07:58:14;;;;;;;17.65;16.35;;;18.40;80.60;;;;;;4930987;29;20059;-72
2021/09/13 08:00:47;;;;;;;17.75;16.38;;;18.60;79.00;;;;;;4932386;29;20086;-72
2021/09/13 08:03:20;;;;;;;17.67;16.38;;;18.70;78.10;;;;;;4932123;29;20051;-72
2021/09/13 08:05:52;;;;;;;17.13;15.70;;;18.70;78.10;;;;;;4937726;29;21019;-72
2021/09/13 08:08:24;;;;;;;16.80;15.48;;;18.80;79.00;;;;;;4946453;29;20082;-72
2021/09/13 08:10:56;;;;;;;17.35;16.15;;;18.90;78.70;;;;;;4932559;29;20128;-73
2021/09/13 08:13:29;;;;;;;17.25;16.05;;;19.10;78.20;;;;;;4933094;29;20058;-72
2021/09/13 08:16:02;;;;;;;17.42;16.08;;;19.20;77.70;;;;;;4927613;29;20160;-71
2021/09/13 08:18:34;;;;;;;17.77;16.48;;;19.30;76.00;;;;;;4936072;29;20059;-72
2021/09/13 08:21:08;;;;;;;18.95;17.23;;;19.40;76.20;;;;;;4932755;29;20059;-71
2021/09/13 08:23:40;;;;;;;17.35;15.93;;;19.50;76.50;;;;;;4919271;29;20651;-73
2021/09/13 08:26:14;;;;;;;17.92;16.63;;;19.50;74.00;;;;;;4933108;29;20051;-71
2021/09/13 08:28:45;;;;;;;17.42;16.13;;;19.70;75.40;;;;;;4935892;29;20512;-70
2021/09/13 08:31:18;;;;;;;18.13;16.83;;;19.80;73.80;;;;;;4922337;30;20056;-72
2021/09/13 08:33:50;;;;;;;17.58;16.30;;;19.90;75.10;;;;;;4936651;29;20051;-71
2021/09/13 08:36:21;;;;;;;17.73;16.42;;;19.90;71.90;;;;;;4940757;29;20106;-71
2021/09/13 08:38:53;;;;;;;17.65;16.45;;;20.00;71.80;;;;;;4935823;29;20150;-71
2021/09/13 08:41:25;;;;;;;17.67;16.38;;;20.10;70.30;;;;;;4933806;29;20130;-72
2021/09/13 08:44:00;;;;;;;18.00;16.77;;;20.20;74.40;;;;;;4935539;29;20131;-72
2021/09/13 08:46:41;;;;;;;17.83;16.63;;;20.30;71.30;;;;;;4934395;29;20126;-72
2021/09/13 08:52:09;;;;;;;18.88;17.50;;;20.60;75.10;;;;;;4934339;29;20091;-72
2021/09/13 08:54:41;;;;;;;18.75;17.35;;;20.70;75.70;;;;;;4918463;29;20102;-72
2021/09/13 08:57:17;;;;;;;18.50;17.13;;;20.80;72.80;;;;;;4931365;29;20135;-71
2021/09/13 08:59:49;;;;;;;18.33;17.02;;;20.90;69.30;;;;;;4934635;29;20059;-72
2021/09/13 09:02:21;;;;;;;17.95;16.65;;;21.00;73.10;;;;;;4933394;29;20074;-72
2021/09/13 09:05:01;;;;;;;18.70;17.40;;;21.10;72.40;;;;;;4935001;29;20070;-72
2021/09/13 09:08:03;;;;;;;18.00;16.70;;;21.10;72.70;;;;;;4932240;29;20055;-72
2021/09/13 09:10:35;;;;;;;18.55;17.25;;;21.30;72.20;;;;;;4930536;29;20074;-72
2021/09/13 09:13:13;;;;;;;19.15;17.77;;;21.30;68.60;;;;;;4933722;29;20083;-72
2021/09/13 09:16:02;;;;;;;17.85;16.55;;;21.40;68.30;;;;;;4920417;29;20077;-71
2021/09/13 09:18:42;;;;;;;18.37;17.07;;;21.40;67.40;;;;;;4941294;29;20052;-72
2021/09/13 09:21:31;;;;;;;;;;;21.50;68.30;;;;;;4934503;29;20426;-72
2021/09/13 09:24:07;;;;;;;18.60;17.10;;;21.70;69.40;;;;;;4931939;29;19929;-72
2021/09/13 09:26:39;;;;;;;19.52;18.02;;;21.70;68.40;;;;;;4932214;29;20051;-71
2021/09/13 09:29:27;;;;;;;18.55;17.20;;;21.80;70.40;;;;;;4934305;29;20048;-71
2021/09/13 09:32:00;;;;;;;19.08;17.70;;;21.80;70.20;;;;;;4933758;29;20051;-71
2021/09/13 09:34:34;;;;;;;19.10;17.50;;;21.90;70.70;;;;;;4933181;29;20059;-72
2021/09/13 09:37:12;;;;;;;19.25;17.85;;;21.90;69.90;;;;;;4946998;29;20494;-72
2021/09/13 09:39:49;;;;;;;19.38;17.88;;;22.00;69.30;;;;;;4932984;29;20051;-73
2021/09/13 09:42:35;;;;;;;19.35;17.85;;;22.00;71.60;;;;;;4933435;29;20067;-72
2021/09/13 09:45:25;;;;;;;19.38;17.92;;;22.20;71.80;;;;;;4932781;29;20055;-72
2021/09/13 09:48:09;;;;;;;19.10;17.75;;;22.20;71.80;;;;;;4931135;29;20180;-71
2021/09/13 09:50:42;;;;;;;19.63;18.23;;;22.30;68.20;;;;;;4934463;29;20827;-72
2021/09/13 09:53:19;;;;;;;18.35;17.05;;;22.30;70.80;;;;;;4935501;29;20137;-72
2021/09/13 09:55:54;;;;;;;19.55;18.05;;;22.40;69.20;;;;;;4931688;29;20570;-72
2021/09/13 09:58:27;;;;;;;18.88;17.58;;;22.40;69.20;;;;;;4932517;29;20155;-71
2021/09/13 10:00:59;;;;;;;18.80;17.33;;;22.50;70.00;;;;;;4934312;29;20134;-72
2021/09/13 10:03:33;;;;;;;18.30;17.00;;;22.60;68.80;;;;;;4933125;29;20055;-71
2021/09/13 10:06:06;;;;;;;18.98;17.67;;;22.70;70.50;;;;;;4929967;29;20075;-71
2021/09/13 10:08:38;;;;;;;19.90;18.50;;;22.70;70.00;;;;;;4932536;29;20479;-72
2021/09/13 10:11:10;;;;;;;19.20;17.80;;;22.80;69.30;;;;;;4929933;29;20531;-72
2021/09/13 10:13:43;;;;;;;19.23;17.92;;;22.80;67.90;;;;;;4937896;29;20056;-72
2021/09/13 10:16:15;;;;;;;19.45;18.05;;;22.90;70.30;;;;;;4916602;30;20063;-72
2021/09/13 10:18:49;;;;;;;19.35;17.95;;;22.90;68.60;;;;;;4931384;29;20070;-72
2021/09/13 10:21:21;;;;;;;19.15;17.75;;;23.00;68.00;;;;;;4930173;29;20134;-73
2021/09/13 10:23:53;;;;;;;20.73;19.00;;;23.00;69.10;;;;;;4919438;29;20053;-72
2021/09/13 10:26:27;;;;;;;20.15;18.65;;;23.10;68.00;;;;;;4923733;29;20507;-72
2021/09/13 10:29:02;;;;;;;21.83;19.80;;;23.20;67.00;;;;;;4945784;29;20465;-71
2021/09/13 10:31:53;;;;;;;19.60;18.10;;;23.30;66.30;;;;;;4931252;29;20066;-72
2021/09/13 10:34:36;;;;;;;19.52;18.13;;;23.20;66.80;;;;;;4932470;29;20058;-72
2021/09/13 10:37:11;;;;;;;19.83;18.42;;;23.30;67.30;;;;;;4923682;30;20384;-72
2021/09/13 10:40:07;;;;;;;21.45;19.77;;;23.30;67.30;;;;;;4932660;29;20055;-71
2021/09/13 10:42:46;;;;;;;20.25;18.83;;;23.40;68.60;;;;;;4931977;29;20047;-73
2021/09/13 10:45:36;;;;;;;20.52;18.92;;;23.50;67.90;;;;;;4930226;29;20058;-73
2021/09/13 10:48:10;;;;;;;;;;;23.50;67.60;;;;;;4934815;29;20048;-73
2021/09/13 10:50:50;;;;;;;20.23;18.73;;;23.50;67.30;;;;;;4937230;29;19983;-73
2021/09/13 10:53:22;;;;;;;20.13;18.63;;;23.70;65.40;;;;;;4929712;29;20239;-74
2021/09/13 10:56:04;;;;;;;20.50;19.10;;;23.70;66.10;;;;;;4930094;29;20047;-73
2021/09/13 10:58:53;;;;;;;20.55;19.05;;;23.80;65.50;;;;;;4932737;29;20814;-75
2021/09/13 11:01:27;;;;;;;20.05;18.65;;;23.80;65.40;;;;;;4945300;29;20691;-73
2021/09/13 11:04:04;;;;;;;20.58;19.10;;;23.80;65.70;;;;;;4931263;29;20047;-73
2021/09/13 11:06:41;;;;;;;19.63;18.25;;;23.80;64.30;;;;;;4929737;29;20051;-74
2021/09/13 11:09:15;;;;;;;20.10;18.70;;;23.90;64.20;;;;;;4931163;29;20055;-73
2021/09/13 11:11:54;;;;;;;20.15;18.75;;;24.00;66.30;;;;;;4929774;29;20113;-74
2021/09/13 11:14:28;;;;;;;20.65;19.13;;;23.90;63.50;;;;;;4932847;29;20062;-75
2021/09/13 11:17:02;;;;;;;20.27;18.85;;;24.00;65.40;;;;;;4929949;29;20051;-74
2021/09/13 11:19:39;;;;;;;20.13;18.73;;;24.00;65.30;;;;;;4930256;29;20448;-75
2021/09/13 11:22:11;;;;;;;20.10;18.67;;;24.10;65.30;;;;;;4930872;29;20052;-75
2021/09/13 11:24:43;;;;;;;19.90;18.50;;;24.20;65.80;;;;;;4932242;29;20525;-76
2021/09/13 11:27:15;;;;;;;20.13;18.73;;;24.30;65.50;;;;;;4929661;29;20142;-74
2021/09/13 11:29:48;;;;;;;20.75;19.30;;;24.30;64.30;;;;;;4931514;29;20192;-74
2021/09/13 11:32:21;;;;;;;20.67;19.27;;;24.40;64.90;;;;;;4917703;29;20493;-75
2021/09/13 11:34:54;;;;;;;20.88;19.45;;;24.40;65.90;;;;;;4931705;29;20068;-74
2021/09/13 11:37:27;;;;;;;20.27;18.77;;;24.50;65.40;;;;;;4929059;29;20051;-74
2021/09/13 11:40:24;;;;;;;21.02;19.52;;;24.60;64.70;;;;;;4929369;29;20935;-74
2021/09/13 11:43:08;;;;;;;20.73;19.27;;;24.60;65.20;;;;;;4932819;29;20075;-75
2021/09/13 11:45:40;;;;;;;20.45;18.98;;;24.70;64.70;;;;;;4933601;29;20140;-74
2021/09/13 11:48:14;;;;;;;19.90;18.58;;;24.80;64.20;;;;;;4930670;29;20051;-74
2021/09/13 11:50:46;;;;;;;19.83;18.42;;;24.90;64.90;;;;;;4936676;29;20048;-75
2021/09/13 11:53:18;;;;;;;19.95;18.55;;;24.90;63.30;;;;;;4948235;29;20132;-75
2021/09/13 11:56:01;;;;;;;20.50;19.10;;;25.00;62.60;;;;;;4934050;29;20058;-75
2021/09/13 11:58:44;;;;;;;20.20;18.80;;;25.00;60.10;;;;;;4934675;29;20451;-75
2021/09/13 12:01:20;;;;;;;19.83;18.50;;;24.90;60.00;;;;;;4933067;29;20054;-74
2021/09/13 12:03:52;;;;;;;19.30;17.98;;;24.60;59.40;;;;;;4940137;29;20112;-74
2021/09/13 12:06:27;;;;;;;18.77;17.38;;;24.50;62.70;;;;;;4933724;29;20055;-74
2021/09/13 12:08:58;;;;;;;19.30;17.90;;;24.30;61.70;;;;;;4935421;29;20079;-75
2021/09/13 12:11:30;;;;;;;18.77;17.45;;;24.10;60.20;;;;;;4933876;29;20091;-75
2021/09/13 12:14:04;;;;;;;19.45;18.15;;;24.00;61.50;;;;;;4922121;30;20592;-76
2021/09/13 12:16:36;;;;;;;19.38;17.98;;;24.20;63.20;;;;;;4933273;29;20147;-74
2021/09/13 12:19:20;;;;;;;19.00;17.70;;;24.30;60.70;;;;;;4920532;29;20056;-74
2021/09/13 12:22:01;;;;;;;19.83;18.42;;;24.40;58.00;;;;;;4934784;29;20138;-73
2021/09/13 12:24:47;;;;;;;19.35;18.00;;;24.10;59.50;;;;;;4935804;29;20445;-74
2021/09/13 12:27:22;;;;;;;19.92;18.58;;;23.90;61.20;;;;;;4931538;29;20815;-74
2021/09/13 12:30:05;;;;;;;19.73;18.33;;;23.90;60.70;;;;;;4935323;29;20071;-74
2021/09/13 12:32:37;;;;;;;19.05;17.65;;;24.10;62.30;;;;;;4940494;29;20123;-74
2021/09/13 12:35:10;;;;;;;19.38;17.98;;;24.30;59.60;;;;;;4935775;29;20753;-74
2021/09/13 12:37:42;;;;;;;18.77;17.48;;;24.00;60.10;;;;;;4932452;29;20132;-74
2021/09/13 12:40:19;;;;;;;19.45;17.98;;;23.90;59.90;;;;;;4936423;29;20059;-72
2021/09/13 12:42:55;;;;;;;19.23;17.92;;;23.70;62.50;;;;;;4935414;29;20052;-74
2021/09/13 12:45:33;;;;;;;18.83;17.42;;;23.50;58.10;;;;;;4936592;29;20059;-74
2021/09/13 12:48:05;;;;;;;18.90;17.50;;;23.40;61.30;;;;;;4928821;29;20046;-73
2021/09/13 12:50:39;;;;;;;18.40;17.10;;;23.30;60.80;;;;;;4936473;29;20055;-74
2021/09/13 12:53:27;;;;;;;18.20;16.92;;;23.20;61.20;;;;;;4909706;30;20120;-74
2021/09/13 12:56:12;;;;;;;18.90;17.60;;;23.20;60.30;;;;;;4935203;29;20147;-74
2021/09/13 12:58:44;;;;;;;19.02;17.73;;;23.10;62.30;;;;;;4935420;29;20134;-72
2021/09/13 13:01:31;;;;;;;18.88;17.58;;;23.30;60.90;;;;;;4940840;29;20051;-73
2021/09/13 13:04:08;;;;;;;19.30;17.83;;;23.50;60.20;;;;;;4933351;29;20107;-74
2021/09/13 13:06:42;;;;;;;19.00;17.60;;;23.70;60.90;;;;;;4933359;29;20116;-74
2021/09/13 13:09:18;;;;;;;19.50;18.20;;;23.90;59.90;;;;;;4933059;29;20047;-74
2021/09/13 13:11:50;;;;;;;19.05;17.75;;;24.00;58.80;;;;;;4945935;29;20136;-74
2021/09/13 13:14:22;;;;;;;18.10;16.90;;;24.00;59.40;;;;;;4935710;29;20079;-74
2021/09/13 13:16:54;;;;;;;18.73;17.42;;;23.90;60.00;;;;;;4934363;29;20108;-73